sensor_id;sensor_type;location;lat;lon;timestamp;P1;durP1;ratioP1;P2;durP2;ratioP2
55537;SDS011;41383;51.418;7.286;2023-05-10T00:01:00;2.25;;;0.95;;
55537;SDS011;41383;51.418;7.286;2023-05-10T00:03:25;2.23;;;1.13;;
55537;SDS011;41383;51.418;7.286;2023-05-10T00:05:51;2.70;;;0.97;;
55537;SDS011;41383;51.418;7.286;2023-05-10T00:08:16;3.63;;;1.35;;
55537;SDS011;41383;51.418;7.286;2023-05-10T00:10:41;8.67;;;1.73;;
55537;SDS011;41383;51.418;7.286;2023-05-10T00:13:06;3.77;;;1.60;;
55537;SDS011;41383;51.418;7.286;2023-05-10T00:15:32;3.33;;;1.10;;
55537;SDS011;41383;51.418;7.286;2023-05-10T00:17:57;3.58;;;1.42;;
55537;SDS011;41383;51.418;7.286;2023-05-10T00:20:22;2.25;;;1.00;;
55537;SDS011;41383;51.418;7.286;2023-05-10T00:22:48;3.60;;;1.20;;
55537;SDS011;41383;51.418;7.286;2023-05-10T00:25:13;3.65;;;1.42;;
55537;SDS011;41383;51.418;7.286;2023-05-10T00:27:38;1.77;;;0.80;;
55537;SDS011;41383;51.418;7.286;2023-05-10T00:30:04;2.13;;;0.97;;
55537;SDS011;41383;51.418;7.286;2023-05-10T00:32:29;2.47;;;1.00;;
55537;SDS011;41383;51.418;7.286;2023-05-10T00:34:55;2.45;;;0.98;;
55537;SDS011;41383;51.418;7.286;2023-05-10T00:37:20;2.63;;;0.83;;
55537;SDS011;41383;51.418;7.286;2023-05-10T00:39:45;3.53;;;1.47;;
55537;SDS011;41383;51.418;7.286;2023-05-10T00:42:11;4.30;;;1.57;;
55537;SDS011;41383;51.418;7.286;2023-05-10T00:44:36;6.50;;;2.17;;
55537;SDS011;41383;51.418;7.286;2023-05-10T00:47:01;5.15;;;2.58;;
55537;SDS011;41383;51.418;7.286;2023-05-10T00:49:27;5.63;;;2.95;;
55537;SDS011;41383;51.418;7.286;2023-05-10T00:51:53;10.65;;;2.97;;
55537;SDS011;41383;51.418;7.286;2023-05-10T00:54:19;7.25;;;2.85;;
55537;SDS011;41383;51.418;7.286;2023-05-10T00:56:44;6.28;;;2.85;;
55537;SDS011;41383;51.418;7.286;2023-05-10T00:59:14;7.10;;;3.33;;
55537;SDS011;41383;51.418;7.286;2023-05-10T01:01:41;7.65;;;2.67;;
55537;SDS011;41383;51.418;7.286;2023-05-10T01:04:08;7.00;;;3.75;;
55537;SDS011;41383;51.418;7.286;2023-05-10T01:06:34;17.05;;;3.60;;
55537;SDS011;41383;51.418;7.286;2023-05-10T01:09:00;8.15;;;3.97;;
55537;SDS011;41383;51.418;7.286;2023-05-10T01:11:25;8.55;;;4.55;;
55537;SDS011;41383;51.418;7.286;2023-05-10T01:13:52;8.95;;;3.45;;
55537;SDS011;41383;51.418;7.286;2023-05-10T01:16:21;8.68;;;3.92;;
55537;SDS011;41383;51.418;7.286;2023-05-10T01:18:47;11.65;;;3.83;;
55537;SDS011;41383;51.418;7.286;2023-05-10T01:34:59;6.72;;;3.92;;
55537;SDS011;41383;51.418;7.286;2023-05-10T01:40:30;9.27;;;4.05;;
55537;SDS011;41383;51.418;7.286;2023-05-10T01:43:21;8.35;;;4.50;;
55537;SDS011;41383;51.418;7.286;2023-05-10T01:46:05;9.95;;;4.57;;
55537;SDS011;41383;51.418;7.286;2023-05-10T01:48:40;7.30;;;4.53;;
55537;SDS011;41383;51.418;7.286;2023-05-10T01:51:11;10.45;;;5.82;;
55537;SDS011;41383;51.418;7.286;2023-05-10T01:53:41;9.13;;;4.53;;
55537;SDS011;41383;51.418;7.286;2023-05-10T01:56:07;8.52;;;4.43;;
55537;SDS011;41383;51.418;7.286;2023-05-10T01:58:35;6.60;;;4.13;;
55537;SDS011;41383;51.418;7.286;2023-05-10T02:01:04;7.53;;;4.38;;
55537;SDS011;41383;51.418;7.286;2023-05-10T02:03:31;8.23;;;4.18;;
55537;SDS011;41383;51.418;7.286;2023-05-10T02:05:58;8.50;;;4.38;;
55537;SDS011;41383;51.418;7.286;2023-05-10T02:08:24;8.68;;;4.60;;
55537;SDS011;41383;51.418;7.286;2023-05-10T02:10:51;8.43;;;4.72;;
55537;SDS011;41383;51.418;7.286;2023-05-10T02:13:18;6.38;;;3.55;;
55537;SDS011;41383;51.418;7.286;2023-05-10T02:15:46;8.80;;;4.28;;
55537;SDS011;41383;51.418;7.286;2023-05-10T02:18:13;9.25;;;3.92;;
55537;SDS011;41383;51.418;7.286;2023-05-10T02:20:40;9.65;;;3.45;;
55537;SDS011;41383;51.418;7.286;2023-05-10T02:23:08;6.28;;;3.50;;
55537;SDS011;41383;51.418;7.286;2023-05-10T02:25:34;7.30;;;3.72;;
55537;SDS011;41383;51.418;7.286;2023-05-10T02:28:04;9.70;;;4.38;;
55537;SDS011;41383;51.418;7.286;2023-05-10T02:30:32;7.85;;;4.60;;
55537;SDS011;41383;51.418;7.286;2023-05-10T02:32:59;7.63;;;3.80;;
55537;SDS011;41383;51.418;7.286;2023-05-10T02:35:27;10.27;;;5.18;;
55537;SDS011;41383;51.418;7.286;2023-05-10T02:37:53;6.22;;;3.47;;
55537;SDS011;41383;51.418;7.286;2023-05-10T02:40:19;9.32;;;3.60;;
55537;SDS011;41383;51.418;7.286;2023-05-10T02:42:47;6.70;;;3.38;;
55537;SDS011;41383;51.418;7.286;2023-05-10T02:45:17;8.73;;;3.50;;
55537;SDS011;41383;51.418;7.286;2023-05-10T02:47:45;6.25;;;3.15;;
55537;SDS011;41383;51.418;7.286;2023-05-10T02:50:11;9.90;;;4.80;;
55537;SDS011;41383;51.418;7.286;2023-05-10T02:52:40;10.23;;;4.22;;
55537;SDS011;41383;51.418;7.286;2023-05-10T02:55:10;8.82;;;4.03;;
55537;SDS011;41383;51.418;7.286;2023-05-10T02:57:41;11.30;;;5.53;;
55537;SDS011;41383;51.418;7.286;2023-05-10T03:00:12;10.73;;;5.80;;
55537;SDS011;41383;51.418;7.286;2023-05-10T03:02:37;10.75;;;4.93;;
55537;SDS011;41383;51.418;7.286;2023-05-10T03:05:03;13.25;;;6.70;;
55537;SDS011;41383;51.418;7.286;2023-05-10T03:07:28;12.50;;;6.53;;
55537;SDS011;41383;51.418;7.286;2023-05-10T03:09:54;11.38;;;6.07;;
55537;SDS011;41383;51.418;7.286;2023-05-10T03:15:22;10.38;;;6.00;;
55537;SDS011;41383;51.418;7.286;2023-05-10T03:17:57;12.13;;;5.90;;
55537;SDS011;41383;51.418;7.286;2023-05-10T03:20:31;10.00;;;5.88;;
55537;SDS011;41383;51.418;7.286;2023-05-10T03:23:05;14.45;;;7.10;;
55537;SDS011;41383;51.418;7.286;2023-05-10T03:25:36;14.98;;;7.10;;
55537;SDS011;41383;51.418;7.286;2023-05-10T03:28:02;12.40;;;6.93;;
55537;SDS011;41383;51.418;7.286;2023-05-10T03:30:29;11.88;;;6.88;;
55537;SDS011;41383;51.418;7.286;2023-05-10T03:32:56;11.93;;;6.22;;
55537;SDS011;41383;51.418;7.286;2023-05-10T03:35:21;14.77;;;7.22;;
55537;SDS011;41383;51.418;7.286;2023-05-10T03:37:48;14.02;;;7.22;;
55537;SDS011;41383;51.418;7.286;2023-05-10T03:40:13;22.60;;;9.70;;
55537;SDS011;41383;51.418;7.286;2023-05-10T03:42:39;16.10;;;9.23;;
55537;SDS011;41383;51.418;7.286;2023-05-10T03:45:04;18.92;;;8.00;;
55537;SDS011;41383;51.418;7.286;2023-05-10T03:47:30;19.77;;;10.07;;
55537;SDS011;41383;51.418;7.286;2023-05-10T03:49:56;17.92;;;10.32;;
55537;SDS011;41383;51.418;7.286;2023-05-10T03:52:21;21.52;;;8.60;;
55537;SDS011;41383;51.418;7.286;2023-05-10T03:54:47;17.40;;;9.93;;
55537;SDS011;41383;51.418;7.286;2023-05-10T03:57:12;16.10;;;8.90;;
55537;SDS011;41383;51.418;7.286;2023-05-10T03:59:37;19.13;;;8.77;;
55537;SDS011;41383;51.418;7.286;2023-05-10T04:02:02;17.93;;;9.87;;
55537;SDS011;41383;51.418;7.286;2023-05-10T04:04:28;16.17;;;8.37;;
55537;SDS011;41383;51.418;7.286;2023-05-10T04:06:53;18.73;;;10.20;;
55537;SDS011;41383;51.418;7.286;2023-05-10T04:09:18;18.73;;;8.80;;
55537;SDS011;41383;51.418;7.286;2023-05-10T04:11:43;14.53;;;8.23;;
55537;SDS011;41383;51.418;7.286;2023-05-10T04:14:09;15.93;;;9.53;;
55537;SDS011;41383;51.418;7.286;2023-05-10T04:16:34;18.83;;;10.20;;
55537;SDS011;41383;51.418;7.286;2023-05-10T04:18:59;18.35;;;9.55;;
55537;SDS011;41383;51.418;7.286;2023-05-10T04:21:25;17.17;;;10.43;;
55537;SDS011;41383;51.418;7.286;2023-05-10T04:23:50;16.95;;;9.45;;
55537;SDS011;41383;51.418;7.286;2023-05-10T04:26:15;14.38;;;8.82;;
55537;SDS011;41383;51.418;7.286;2023-05-10T04:28:41;15.50;;;7.87;;
55537;SDS011;41383;51.418;7.286;2023-05-10T04:31:07;16.45;;;9.60;;
55537;SDS011;41383;51.418;7.286;2023-05-10T04:33:33;17.83;;;10.30;;
55537;SDS011;41383;51.418;7.286;2023-05-10T04:35:59;18.38;;;7.95;;
55537;SDS011;41383;51.418;7.286;2023-05-10T04:38:25;16.63;;;10.35;;
55537;SDS011;41383;51.418;7.286;2023-05-10T04:40:51;18.48;;;8.82;;
55537;SDS011;41383;51.418;7.286;2023-05-10T04:43:17;18.58;;;9.32;;
55537;SDS011;41383;51.418;7.286;2023-05-10T04:45:42;20.83;;;10.47;;
55537;SDS011;41383;51.418;7.286;2023-05-10T04:48:07;22.80;;;12.13;;
55537;SDS011;41383;51.418;7.286;2023-05-10T04:50:33;22.17;;;12.53;;
55537;SDS011;41383;51.418;7.286;2023-05-10T04:52:58;20.95;;;12.48;;
55537;SDS011;41383;51.418;7.286;2023-05-10T04:55:23;20.88;;;11.05;;
55537;SDS011;41383;51.418;7.286;2023-05-10T04:57:49;22.27;;;11.00;;
55537;SDS011;41383;51.418;7.286;2023-05-10T05:00:14;19.33;;;11.40;;
55537;SDS011;41383;51.418;7.286;2023-05-10T05:02:43;17.83;;;10.70;;
55537;SDS011;41383;51.418;7.286;2023-05-10T05:05:12;25.08;;;12.88;;
55537;SDS011;41383;51.418;7.286;2023-05-10T05:07:37;22.17;;;14.27;;
55537;SDS011;41383;51.418;7.286;2023-05-10T05:10:03;27.08;;;14.48;;
55537;SDS011;41383;51.418;7.286;2023-05-10T05:12:30;23.40;;;14.07;;
55537;SDS011;41383;51.418;7.286;2023-05-10T05:14:55;27.97;;;16.00;;
55537;SDS011;41383;51.418;7.286;2023-05-10T05:17:21;30.15;;;14.15;;
55537;SDS011;41383;51.418;7.286;2023-05-10T05:19:46;26.10;;;15.47;;
55537;SDS011;41383;51.418;7.286;2023-05-10T05:22:12;26.17;;;15.93;;
55537;SDS011;41383;51.418;7.286;2023-05-10T05:24:37;31.52;;;16.10;;
55537;SDS011;41383;51.418;7.286;2023-05-10T05:27:05;24.75;;;15.77;;
55537;SDS011;41383;51.418;7.286;2023-05-10T05:29:31;27.38;;;14.27;;
55537;SDS011;41383;51.418;7.286;2023-05-10T05:31:56;23.15;;;14.43;;
55537;SDS011;41383;51.418;7.286;2023-05-10T05:34:21;27.45;;;15.68;;
55537;SDS011;41383;51.418;7.286;2023-05-10T05:36:47;31.33;;;18.75;;
55537;SDS011;41383;51.418;7.286;2023-05-10T05:39:12;25.38;;;16.25;;
55537;SDS011;41383;51.418;7.286;2023-05-10T05:41:38;25.27;;;14.90;;
55537;SDS011;41383;51.418;7.286;2023-05-10T05:44:03;26.38;;;15.15;;
55537;SDS011;41383;51.418;7.286;2023-05-10T05:46:28;31.13;;;16.98;;
55537;SDS011;41383;51.418;7.286;2023-05-10T05:48:54;37.17;;;18.70;;
55537;SDS011;41383;51.418;7.286;2023-05-10T05:51:19;32.70;;;17.73;;
55537;SDS011;41383;51.418;7.286;2023-05-10T05:53:45;28.10;;;16.67;;
55537;SDS011;41383;51.418;7.286;2023-05-10T05:56:10;30.73;;;17.03;;
55537;SDS011;41383;51.418;7.286;2023-05-10T05:58:35;26.70;;;16.92;;
55537;SDS011;41383;51.418;7.286;2023-05-10T06:01:00;34.23;;;19.07;;
55537;SDS011;41383;51.418;7.286;2023-05-10T06:03:26;29.25;;;15.88;;
55537;SDS011;41383;51.418;7.286;2023-05-10T06:05:51;37.00;;;20.10;;
55537;SDS011;41383;51.418;7.286;2023-05-10T06:08:16;28.67;;;17.52;;
55537;SDS011;41383;51.418;7.286;2023-05-10T06:10:42;30.73;;;19.67;;
55537;SDS011;41383;51.418;7.286;2023-05-10T06:13:07;26.90;;;18.08;;
55537;SDS011;41383;51.418;7.286;2023-05-10T06:15:32;31.97;;;17.90;;
55537;SDS011;41383;51.418;7.286;2023-05-10T06:17:58;30.88;;;18.02;;
55537;SDS011;41383;51.418;7.286;2023-05-10T06:20:23;26.70;;;16.35;;
55537;SDS011;41383;51.418;7.286;2023-05-10T06:22:48;34.10;;;18.05;;
55537;SDS011;41383;51.418;7.286;2023-05-10T06:25:14;35.55;;;19.40;;
55537;SDS011;41383;51.418;7.286;2023-05-10T06:27:39;32.53;;;17.27;;
55537;SDS011;41383;51.418;7.286;2023-05-10T06:30:05;30.77;;;17.25;;
55537;SDS011;41383;51.418;7.286;2023-05-10T06:32:31;29.58;;;18.35;;
55537;SDS011;41383;51.418;7.286;2023-05-10T06:34:56;32.67;;;16.73;;
55537;SDS011;41383;51.418;7.286;2023-05-10T06:37:21;28.90;;;17.27;;
55537;SDS011;41383;51.418;7.286;2023-05-10T06:39:46;31.20;;;16.07;;
55537;SDS011;41383;51.418;7.286;2023-05-10T06:42:12;33.57;;;16.70;;
55537;SDS011;41383;51.418;7.286;2023-05-10T06:44:37;30.30;;;16.83;;
55537;SDS011;41383;51.418;7.286;2023-05-10T06:47:02;29.30;;;16.73;;
55537;SDS011;41383;51.418;7.286;2023-05-10T06:49:27;26.03;;;15.90;;
55537;SDS011;41383;51.418;7.286;2023-05-10T06:51:53;27.03;;;15.30;;
55537;SDS011;41383;51.418;7.286;2023-05-10T06:54:18;30.90;;;16.08;;
55537;SDS011;41383;51.418;7.286;2023-05-10T06:56:43;25.42;;;15.00;;
55537;SDS011;41383;51.418;7.286;2023-05-10T06:59:08;23.87;;;14.80;;
55537;SDS011;41383;51.418;7.286;2023-05-10T07:01:34;25.50;;;15.07;;
55537;SDS011;41383;51.418;7.286;2023-05-10T07:03:59;26.17;;;15.23;;
55537;SDS011;41383;51.418;7.286;2023-05-10T07:06:24;26.55;;;15.43;;
55537;SDS011;41383;51.418;7.286;2023-05-10T07:08:50;27.77;;;15.90;;
55537;SDS011;41383;51.418;7.286;2023-05-10T07:11:15;24.13;;;13.87;;
55537;SDS011;41383;51.418;7.286;2023-05-10T07:13:40;28.27;;;16.13;;
55537;SDS011;41383;51.418;7.286;2023-05-10T07:16:09;31.25;;;16.20;;
55537;SDS011;41383;51.418;7.286;2023-05-10T07:18:34;27.17;;;15.40;;
55537;SDS011;41383;51.418;7.286;2023-05-10T07:21:00;32.53;;;17.33;;
55537;SDS011;41383;51.418;7.286;2023-05-10T07:23:25;32.73;;;15.87;;
55537;SDS011;41383;51.418;7.286;2023-05-10T07:25:51;26.90;;;16.60;;
55537;SDS011;41383;51.418;7.286;2023-05-10T07:28:17;28.02;;;16.08;;
55537;SDS011;41383;51.418;7.286;2023-05-10T07:30:43;29.92;;;16.83;;
55537;SDS011;41383;51.418;7.286;2023-05-10T07:33:09;37.83;;;19.75;;
55537;SDS011;41383;51.418;7.286;2023-05-10T07:35:35;30.13;;;17.73;;
55537;SDS011;41383;51.418;7.286;2023-05-10T07:38:01;38.85;;;21.27;;
55537;SDS011;41383;51.418;7.286;2023-05-10T07:40:26;39.50;;;20.42;;
55537;SDS011;41383;51.418;7.286;2023-05-10T07:42:52;37.67;;;20.92;;
55537;SDS011;41383;51.418;7.286;2023-05-10T07:45:17;36.92;;;17.98;;
55537;SDS011;41383;51.418;7.286;2023-05-10T07:47:43;47.38;;;21.42;;
55537;SDS011;41383;51.418;7.286;2023-05-10T07:50:08;39.85;;;21.02;;
55537;SDS011;41383;51.418;7.286;2023-05-10T07:52:34;38.00;;;19.60;;
55537;SDS011;41383;51.418;7.286;2023-05-10T07:54:59;47.95;;;17.15;;
55537;SDS011;41383;51.418;7.286;2023-05-10T07:57:24;36.57;;;16.73;;
55537;SDS011;41383;51.418;7.286;2023-05-10T07:59:49;27.50;;;15.88;;
55537;SDS011;41383;51.418;7.286;2023-05-10T08:02:15;31.50;;;15.13;;
55537;SDS011;41383;51.418;7.286;2023-05-10T08:04:40;23.33;;;12.55;;
55537;SDS011;41383;51.418;7.286;2023-05-10T08:07:05;23.80;;;10.60;;
55537;SDS011;41383;51.418;7.286;2023-05-10T08:09:31;20.20;;;10.00;;
55537;SDS011;41383;51.418;7.286;2023-05-10T08:11:56;22.37;;;10.73;;
55537;SDS011;41383;51.418;7.286;2023-05-10T08:14:21;19.17;;;10.27;;
55537;SDS011;41383;51.418;7.286;2023-05-10T08:16:46;20.60;;;10.80;;
55537;SDS011;41383;51.418;7.286;2023-05-10T08:19:12;20.48;;;11.35;;
55537;SDS011;41383;51.418;7.286;2023-05-10T08:21:37;22.58;;;10.80;;
55537;SDS011;41383;51.418;7.286;2023-05-10T08:24:03;20.45;;;12.00;;
55537;SDS011;41383;51.418;7.286;2023-05-10T08:26:28;19.85;;;10.23;;
55537;SDS011;41383;51.418;7.286;2023-05-10T08:28:53;20.67;;;10.90;;
55537;SDS011;41383;51.418;7.286;2023-05-10T08:31:19;21.30;;;9.67;;
55537;SDS011;41383;51.418;7.286;2023-05-10T08:33:44;21.23;;;10.77;;
55537;SDS011;41383;51.418;7.286;2023-05-10T08:36:09;28.20;;;12.77;;
55537;SDS011;41383;51.418;7.286;2023-05-10T08:38:34;19.80;;;10.60;;
55537;SDS011;41383;51.418;7.286;2023-05-10T08:41:00;20.70;;;9.88;;
55537;SDS011;41383;51.418;7.286;2023-05-10T08:43:27;19.75;;;11.15;;
55537;SDS011;41383;51.418;7.286;2023-05-10T08:45:56;19.02;;;11.30;;
55537;SDS011;41383;51.418;7.286;2023-05-10T08:48:25;20.55;;;11.93;;
55537;SDS011;41383;51.418;7.286;2023-05-10T08:50:53;17.30;;;10.77;;
55537;SDS011;41383;51.418;7.286;2023-05-10T08:53:21;22.13;;;10.13;;
55537;SDS011;41383;51.418;7.286;2023-05-10T08:55:51;19.30;;;10.95;;
55537;SDS011;41383;51.418;7.286;2023-05-10T08:58:17;24.92;;;11.52;;
55537;SDS011;41383;51.418;7.286;2023-05-10T09:00:44;21.42;;;11.52;;
55537;SDS011;41383;51.418;7.286;2023-05-10T09:03:10;20.67;;;10.07;;
55537;SDS011;41383;51.418;7.286;2023-05-10T09:05:36;22.98;;;10.13;;
55537;SDS011;41383;51.418;7.286;2023-05-10T09:08:02;18.35;;;9.48;;
55537;SDS011;41383;51.418;7.286;2023-05-10T09:10:27;13.55;;;6.72;;
55537;SDS011;41383;51.418;7.286;2023-05-10T09:12:55;13.90;;;7.80;;
55537;SDS011;41383;51.418;7.286;2023-05-10T09:15:21;15.35;;;7.97;;
55537;SDS011;41383;51.418;7.286;2023-05-10T09:17:47;12.85;;;6.07;;
55537;SDS011;41383;51.418;7.286;2023-05-10T09:20:14;20.90;;;6.50;;
55537;SDS011;41383;51.418;7.286;2023-05-10T09:22:39;12.70;;;5.50;;
55537;SDS011;41383;51.418;7.286;2023-05-10T09:25:09;14.05;;;7.32;;
55537;SDS011;41383;51.418;7.286;2023-05-10T09:27:36;11.93;;;5.22;;
55537;SDS011;41383;51.418;7.286;2023-05-10T09:30:03;14.07;;;6.15;;
55537;SDS011;41383;51.418;7.286;2023-05-10T09:33:03;15.98;;;6.90;;
55537;SDS011;41383;51.418;7.286;2023-05-10T09:35:23;12.98;;;5.90;;
55537;SDS011;41383;51.418;7.286;2023-05-10T09:37:51;15.15;;;7.05;;
55537;SDS011;41383;51.418;7.286;2023-05-10T09:40:22;13.98;;;6.57;;
55537;SDS011;41383;51.418;7.286;2023-05-10T09:45:22;11.35;;;6.28;;
55537;SDS011;41383;51.418;7.286;2023-05-10T09:47:48;11.25;;;7.18;;
55537;SDS011;41383;51.418;7.286;2023-05-10T09:50:14;18.08;;;8.63;;
55537;SDS011;41383;51.418;7.286;2023-05-10T09:55:23;14.55;;;6.20;;
55537;SDS011;41383;51.418;7.286;2023-05-10T09:57:58;26.80;;;7.35;;
55537;SDS011;41383;51.418;7.286;2023-05-10T10:00:25;15.75;;;6.35;;
55537;SDS011;41383;51.418;7.286;2023-05-10T10:02:55;13.45;;;5.97;;
55537;SDS011;41383;51.418;7.286;2023-05-10T10:05:27;16.63;;;8.02;;
55537;SDS011;41383;51.418;7.286;2023-05-10T10:07:56;14.32;;;7.07;;
55537;SDS011;41383;51.418;7.286;2023-05-10T10:10:22;16.52;;;9.10;;
55537;SDS011;41383;51.418;7.286;2023-05-10T10:12:52;17.83;;;8.63;;
55537;SDS011;41383;51.418;7.286;2023-05-10T10:15:20;16.40;;;7.88;;
55537;SDS011;41383;51.418;7.286;2023-05-10T10:17:45;18.60;;;8.93;;
55537;SDS011;41383;51.418;7.286;2023-05-10T10:20:12;15.82;;;7.90;;
55537;SDS011;41383;51.418;7.286;2023-05-10T10:22:38;17.27;;;8.00;;
55537;SDS011;41383;51.418;7.286;2023-05-10T10:25:04;16.38;;;7.95;;
55537;SDS011;41383;51.418;7.286;2023-05-10T10:30:57;22.00;;;13.30;;
55537;SDS011;41383;51.418;7.286;2023-05-10T10:36:15;40.17;;;15.30;;
55537;SDS011;41383;51.418;7.286;2023-05-10T10:47:21;15.38;;;10.20;;
55537;SDS011;41383;51.418;7.286;2023-05-10T10:49:48;22.40;;;12.38;;
55537;SDS011;41383;51.418;7.286;2023-05-10T10:52:32;17.10;;;8.73;;
55537;SDS011;41383;51.418;7.286;2023-05-10T11:03:03;18.48;;;10.48;;
55537;SDS011;41383;51.418;7.286;2023-05-10T11:08:17;14.65;;;7.53;;
55537;SDS011;41383;51.418;7.286;2023-05-10T11:13:45;14.07;;;7.90;;
55537;SDS011;41383;51.418;7.286;2023-05-10T11:16:13;17.73;;;8.30;;
55537;SDS011;41383;51.418;7.286;2023-05-10T11:21:28;16.35;;;7.75;;
55537;SDS011;41383;51.418;7.286;2023-05-10T11:23:55;17.73;;;8.18;;
55537;SDS011;41383;51.418;7.286;2023-05-10T11:26:25;14.65;;;7.72;;
55537;SDS011;41383;51.418;7.286;2023-05-10T11:28:55;16.42;;;7.05;;
55537;SDS011;41383;51.418;7.286;2023-05-10T11:31:20;17.45;;;8.00;;
55537;SDS011;41383;51.418;7.286;2023-05-10T11:33:50;23.52;;;9.93;;
55537;SDS011;41383;51.418;7.286;2023-05-10T11:36:17;15.85;;;9.60;;
55537;SDS011;41383;51.418;7.286;2023-05-10T11:38:50;14.52;;;7.82;;
55537;SDS011;41383;51.418;7.286;2023-05-10T11:41:17;19.70;;;9.68;;
55537;SDS011;41383;51.418;7.286;2023-05-10T11:43:44;22.60;;;12.90;;
55537;SDS011;41383;51.418;7.286;2023-05-10T11:46:12;22.35;;;10.85;;
55537;SDS011;41383;51.418;7.286;2023-05-10T11:48:41;19.02;;;11.30;;
55537;SDS011;41383;51.418;7.286;2023-05-10T11:51:07;21.20;;;10.68;;
55537;SDS011;41383;51.418;7.286;2023-05-10T11:53:33;17.15;;;10.50;;
55537;SDS011;41383;51.418;7.286;2023-05-10T11:56:05;16.73;;;9.55;;
55537;SDS011;41383;51.418;7.286;2023-05-10T11:58:34;14.85;;;8.82;;
55537;SDS011;41383;51.418;7.286;2023-05-10T12:01:01;16.10;;;8.95;;
55537;SDS011;41383;51.418;7.286;2023-05-10T12:03:27;17.40;;;7.65;;
55537;SDS011;41383;51.418;7.286;2023-05-10T12:05:53;16.27;;;9.63;;
55537;SDS011;41383;51.418;7.286;2023-05-10T12:08:20;16.45;;;9.25;;
55537;SDS011;41383;51.418;7.286;2023-05-10T12:10:47;16.67;;;9.52;;
55537;SDS011;41383;51.418;7.286;2023-05-10T12:13:13;19.55;;;9.93;;
55537;SDS011;41383;51.418;7.286;2023-05-10T12:15:39;13.05;;;8.50;;
55537;SDS011;41383;51.418;7.286;2023-05-10T12:18:04;19.33;;;10.60;;
55537;SDS011;41383;51.418;7.286;2023-05-10T12:20:30;13.27;;;8.88;;
55537;SDS011;41383;51.418;7.286;2023-05-10T12:22:56;17.70;;;9.23;;
55537;SDS011;41383;51.418;7.286;2023-05-10T12:25:23;17.38;;;9.95;;
55537;SDS011;41383;51.418;7.286;2023-05-10T12:27:54;15.85;;;9.38;;
55537;SDS011;41383;51.418;7.286;2023-05-10T12:30:24;17.55;;;9.57;;
55537;SDS011;41383;51.418;7.286;2023-05-10T12:32:52;20.23;;;10.38;;
55537;SDS011;41383;51.418;7.286;2023-05-10T12:35:18;16.13;;;10.50;;
55537;SDS011;41383;51.418;7.286;2023-05-10T12:37:48;17.70;;;9.00;;
55537;SDS011;41383;51.418;7.286;2023-05-10T12:40:13;12.27;;;7.23;;
55537;SDS011;41383;51.418;7.286;2023-05-10T12:42:39;16.80;;;9.10;;
55537;SDS011;41383;51.418;7.286;2023-05-10T12:45:05;11.73;;;7.50;;
55537;SDS011;41383;51.418;7.286;2023-05-10T12:47:31;13.35;;;6.97;;
55537;SDS011;41383;51.418;7.286;2023-05-10T12:49:57;13.38;;;7.47;;
55537;SDS011;41383;51.418;7.286;2023-05-10T12:52:23;19.38;;;8.82;;
55537;SDS011;41383;51.418;7.286;2023-05-10T12:54:49;15.13;;;7.30;;
55537;SDS011;41383;51.418;7.286;2023-05-10T12:57:14;14.52;;;8.57;;
55537;SDS011;41383;51.418;7.286;2023-05-10T12:59:40;14.17;;;7.60;;
55537;SDS011;41383;51.418;7.286;2023-05-10T13:02:05;46.13;;;12.23;;
55537;SDS011;41383;51.418;7.286;2023-05-10T13:04:31;16.85;;;10.45;;
55537;SDS011;41383;51.418;7.286;2023-05-10T13:06:56;19.75;;;10.52;;
55537;SDS011;41383;51.418;7.286;2023-05-10T13:09:23;16.92;;;10.18;;
55537;SDS011;41383;51.418;7.286;2023-05-10T13:11:54;36.83;;;17.75;;
55537;SDS011;41383;51.418;7.286;2023-05-10T13:14:19;16.20;;;9.93;;
55537;SDS011;41383;51.418;7.286;2023-05-10T13:16:45;16.00;;;8.27;;
55537;SDS011;41383;51.418;7.286;2023-05-10T13:19:11;16.75;;;8.63;;
55537;SDS011;41383;51.418;7.286;2023-05-10T13:21:36;15.18;;;8.20;;
55537;SDS011;41383;51.418;7.286;2023-05-10T13:24:01;17.23;;;7.50;;
55537;SDS011;41383;51.418;7.286;2023-05-10T13:26:27;12.43;;;6.90;;
55537;SDS011;41383;51.418;7.286;2023-05-10T13:28:52;13.73;;;8.43;;
55537;SDS011;41383;51.418;7.286;2023-05-10T13:31:20;14.15;;;8.48;;
55537;SDS011;41383;51.418;7.286;2023-05-10T13:33:45;15.85;;;9.48;;
55537;SDS011;41383;51.418;7.286;2023-05-10T13:36:11;12.37;;;7.70;;
55537;SDS011;41383;51.418;7.286;2023-05-10T13:38:36;14.33;;;8.57;;
55537;SDS011;41383;51.418;7.286;2023-05-10T13:41:02;20.83;;;6.57;;
55537;SDS011;41383;51.418;7.286;2023-05-10T13:43:28;16.40;;;6.55;;
55537;SDS011;41383;51.418;7.286;2023-05-10T13:45:54;15.55;;;7.05;;
55537;SDS011;41383;51.418;7.286;2023-05-10T13:48:19;10.00;;;5.93;;
55537;SDS011;41383;51.418;7.286;2023-05-10T13:50:44;11.30;;;7.57;;
55537;SDS011;41383;51.418;7.286;2023-05-10T13:53:10;12.70;;;6.88;;
55537;SDS011;41383;51.418;7.286;2023-05-10T13:55:36;10.40;;;5.97;;
55537;SDS011;41383;51.418;7.286;2023-05-10T13:58:01;10.63;;;5.93;;
55537;SDS011;41383;51.418;7.286;2023-05-10T14:00:26;8.00;;;5.50;;
55537;SDS011;41383;51.418;7.286;2023-05-10T14:02:52;10.88;;;6.60;;
55537;SDS011;41383;51.418;7.286;2023-05-10T14:05:17;15.53;;;7.10;;
55537;SDS011;41383;51.418;7.286;2023-05-10T14:07:42;10.40;;;5.70;;
55537;SDS011;41383;51.418;7.286;2023-05-10T14:10:07;9.83;;;5.87;;
55537;SDS011;41383;51.418;7.286;2023-05-10T14:12:33;9.88;;;5.43;;
55537;SDS011;41383;51.418;7.286;2023-05-10T14:14:58;12.33;;;5.80;;
55537;SDS011;41383;51.418;7.286;2023-05-10T14:17:23;6.10;;;3.53;;
55537;SDS011;41383;51.418;7.286;2023-05-10T14:19:49;8.63;;;4.50;;
55537;SDS011;41383;51.418;7.286;2023-05-10T14:22:14;28.93;;;5.20;;
55537;SDS011;41383;51.418;7.286;2023-05-10T14:24:39;7.20;;;3.92;;
55537;SDS011;41383;51.418;7.286;2023-05-10T14:27:04;5.67;;;3.30;;
55537;SDS011;41383;51.418;7.286;2023-05-10T14:29:30;9.90;;;3.55;;
55537;SDS011;41383;51.418;7.286;2023-05-10T14:31:56;6.43;;;2.80;;
55537;SDS011;41383;51.418;7.286;2023-05-10T14:34:21;6.83;;;3.20;;
55537;SDS011;41383;51.418;7.286;2023-05-10T14:36:46;7.77;;;2.47;;
55537;SDS011;41383;51.418;7.286;2023-05-10T14:39:11;5.65;;;3.00;;
55537;SDS011;41383;51.418;7.286;2023-05-10T14:41:38;7.60;;;3.88;;
55537;SDS011;41383;51.418;7.286;2023-05-10T14:44:05;8.00;;;3.00;;
55537;SDS011;41383;51.418;7.286;2023-05-10T14:46:31;6.35;;;2.42;;
55537;SDS011;41383;51.418;7.286;2023-05-10T14:48:56;9.73;;;3.77;;
55537;SDS011;41383;51.418;7.286;2023-05-10T14:51:21;5.07;;;2.77;;
55537;SDS011;41383;51.418;7.286;2023-05-10T14:53:47;6.40;;;3.33;;
55537;SDS011;41383;51.418;7.286;2023-05-10T14:56:14;7.00;;;2.80;;
55537;SDS011;41383;51.418;7.286;2023-05-10T14:58:39;8.33;;;4.53;;
55537;SDS011;41383;51.418;7.286;2023-05-10T15:01:04;8.57;;;4.93;;
55537;SDS011;41383;51.418;7.286;2023-05-10T15:03:29;5.27;;;3.27;;
55537;SDS011;41383;51.418;7.286;2023-05-10T15:05:55;9.77;;;4.13;;
55537;SDS011;41383;51.418;7.286;2023-05-10T15:08:22;11.30;;;5.07;;
55537;SDS011;41383;51.418;7.286;2023-05-10T15:10:49;6.88;;;3.45;;
55537;SDS011;41383;51.418;7.286;2023-05-10T15:13:14;7.30;;;4.47;;
55537;SDS011;41383;51.418;7.286;2023-05-10T15:15:40;8.70;;;4.28;;
55537;SDS011;41383;51.418;7.286;2023-05-10T15:18:05;12.33;;;5.97;;
55537;SDS011;41383;51.418;7.286;2023-05-10T15:20:30;7.83;;;4.87;;
55537;SDS011;41383;51.418;7.286;2023-05-10T15:22:55;8.48;;;4.03;;
55537;SDS011;41383;51.418;7.286;2023-05-10T15:25:21;6.97;;;3.63;;